createdAt,value
2023-01-26T00:01:45.473Z,97.53
2023-01-26T00:04:13.790Z,98.68
2023-01-26T00:06:41.761Z,96.55
2023-01-26T00:09:14.259Z,95.63
2023-01-26T00:11:42.519Z,95.13
2023-01-26T00:14:10.467Z,92.38
2023-01-26T00:16:40.398Z,93.00
2023-01-26T00:19:08.457Z,88.70
2023-01-26T00:21:36.420Z,90.18
2023-01-26T00:24:05.010Z,84.35
2023-01-26T00:26:33.062Z,88.50
2023-01-26T00:29:01.432Z,86.55
2023-01-26T00:31:29.680Z,92.00
2023-01-26T00:33:59.104Z,89.70
2023-01-26T00:36:27.581Z,90.88
2023-01-26T00:38:55.590Z,81.30
2023-01-26T00:41:40.913Z,83.90
2023-01-26T00:44:09.017Z,92.75
2023-01-26T00:46:38.271Z,85.57
2023-01-26T00:49:08.862Z,87.45
2023-01-26T00:51:36.849Z,85.25
2023-01-26T00:54:04.986Z,91.43
2023-01-26T00:56:32.967Z,88.47
2023-01-26T00:59:00.942Z,86.28
2023-01-26T01:01:28.918Z,84.53
2023-01-26T01:03:56.911Z,84.35
2023-01-26T01:06:26.371Z,84.13
2023-01-26T01:08:54.354Z,85.53
2023-01-26T01:11:22.369Z,85.93
2023-01-26T01:13:50.294Z,79.53
2023-01-26T01:16:18.502Z,88.70
2023-01-26T01:18:46.812Z,86.57
2023-01-26T01:21:17.187Z,84.82
2023-01-26T01:23:46.863Z,81.60
2023-01-26T01:26:16.165Z,89.03
2023-01-26T01:28:45.087Z,80.38
2023-01-26T01:31:15.092Z,83.07
2023-01-26T01:33:43.786Z,78.75
2023-01-26T01:36:13.986Z,77.05
2023-01-26T01:38:42.334Z,81.78
2023-01-26T01:41:12.556Z,81.93
2023-01-26T01:43:40.474Z,76.43
2023-01-26T01:46:13.512Z,82.85
2023-01-26T01:48:50.398Z,78.72
2023-01-26T01:51:22.532Z,83.05
2023-01-26T01:53:52.634Z,78.75
2023-01-26T01:56:27.393Z,80.57
2023-01-26T01:58:58.034Z,77.47
2023-01-26T02:01:26.414Z,75.50
2023-01-26T02:03:58.558Z,80.43
2023-01-26T02:06:31.745Z,84.95
2023-01-26T02:09:00.038Z,77.80
2023-01-26T02:11:34.881Z,79.55
2023-01-26T02:14:05.757Z,79.15
2023-01-26T02:16:33.833Z,87.53
2023-01-26T02:19:02.087Z,69.53
2023-01-26T02:21:31.333Z,78.93
2023-01-26T02:24:13.808Z,88.15
2023-01-26T02:26:43.812Z,80.18
2023-01-26T02:29:13.185Z,76.80
2023-01-26T02:31:41.663Z,76.32
2023-01-26T02:34:09.887Z,82.63
2023-01-26T02:36:37.811Z,75.43
2023-01-26T02:39:21.507Z,84.95
2023-01-26T02:42:09.597Z,76.03
2023-01-26T02:44:38.615Z,70.78
2023-01-26T02:47:13.256Z,74.40
2023-01-26T02:49:50.961Z,74.15
2023-01-26T02:52:21.118Z,72.82
2023-01-26T02:55:06.796Z,76.10
2023-01-26T02:57:36.104Z,69.38
2023-01-26T03:00:05.897Z,65.00
2023-01-26T03:02:33.988Z,67.25
2023-01-26T03:05:01.951Z,63.88
2023-01-26T03:07:29.899Z,67.18
2023-01-26T03:09:58.744Z,64.73
2023-01-26T03:12:27.115Z,63.30
2023-01-26T03:15:10.463Z,64.15
2023-01-26T03:17:38.482Z,64.05
2023-01-26T03:20:25.447Z,56.50
2023-01-26T03:23:10.109Z,60.40
2023-01-26T03:25:55.717Z,61.92
2023-01-26T03:28:23.864Z,57.97
2023-01-26T03:30:55.578Z,56.63
2023-01-26T03:33:23.918Z,58.38
2023-01-26T03:35:54.716Z,54.83
2023-01-26T03:38:22.974Z,61.97
2023-01-26T03:41:08.226Z,54.88
2023-01-26T03:43:53.823Z,51.88
2023-01-26T03:46:40.392Z,55.88
2023-01-26T03:49:26.438Z,52.13
2023-01-26T03:52:12.046Z,57.97
2023-01-26T03:54:57.507Z,54.75
2023-01-26T03:57:25.461Z,57.72
2023-01-26T03:59:53.415Z,60.85
2023-01-26T04:02:40.249Z,49.53
2023-01-26T04:05:26.630Z,53.00
2023-01-26T04:08:12.293Z,53.93
2023-01-26T04:10:40.314Z,54.17
2023-01-26T04:13:25.767Z,48.30
2023-01-26T04:16:11.613Z,51.45
2023-01-26T04:18:58.262Z,51.83
2023-01-26T04:21:29.915Z,50.63
2023-01-26T04:23:59.166Z,51.20
2023-01-26T04:26:34.682Z,50.33
2023-01-26T04:29:03.560Z,49.40
2023-01-26T04:31:31.888Z,50.57
2023-01-26T04:34:01.772Z,52.72
2023-01-26T04:36:30.063Z,51.72
2023-01-26T04:38:58.176Z,51.83
2023-01-26T04:41:26.333Z,51.00
2023-01-26T04:43:54.382Z,53.75
2023-01-26T04:46:22.506Z,50.22
2023-01-26T04:48:50.504Z,48.05
2023-01-26T04:51:21.523Z,48.78
2023-01-26T04:53:49.678Z,47.55
2023-01-26T04:56:23.249Z,53.70
2023-01-26T04:58:51.525Z,54.17
2023-01-26T05:01:20.157Z,51.63
2023-01-26T05:03:48.551Z,47.17
2023-01-26T05:06:16.600Z,48.58
2023-01-26T05:08:46.094Z,53.10
2023-01-26T05:11:14.221Z,50.22
2023-01-26T05:13:42.215Z,47.65
2023-01-26T05:16:13.841Z,52.58
2023-01-26T05:18:42.145Z,50.08
2023-01-26T05:21:10.515Z,54.10
2023-01-26T05:23:38.830Z,48.15
2023-01-26T05:26:08.725Z,43.33
2023-01-26T05:28:36.780Z,53.00
2023-01-26T05:31:05.449Z,55.92
2023-01-26T05:33:33.530Z,52.17
2023-01-26T05:36:05.327Z,50.97
2023-01-26T05:38:33.364Z,50.20
2023-01-26T05:41:01.361Z,49.80
2023-01-26T05:43:30.742Z,49.10
2023-01-26T05:45:58.753Z,55.22
2023-01-26T05:48:26.786Z,52.22
2023-01-26T05:50:57.450Z,45.35
2023-01-26T05:53:25.668Z,47.95
2023-01-26T05:55:53.724Z,54.10
2023-01-26T05:58:21.659Z,50.55
2023-01-26T06:00:50.991Z,53.67
2023-01-26T06:03:19.120Z,53.72
2023-01-26T06:05:53.968Z,53.05
2023-01-26T06:08:22.114Z,53.92
2023-01-26T06:10:50.104Z,51.73
2023-01-26T06:13:18.055Z,52.97
2023-01-26T06:15:46.047Z,48.63
2023-01-26T06:18:15.342Z,54.92
2023-01-26T06:20:44.320Z,56.30
2023-01-26T06:23:12.789Z,61.08
2023-01-26T06:25:40.797Z,55.65
2023-01-26T06:28:08.897Z,62.28
2023-01-26T06:30:37.054Z,54.53
2023-01-26T06:33:06.924Z,57.70
2023-01-26T06:35:37.189Z,56.45
2023-01-26T06:38:05.313Z,55.92
2023-01-26T06:40:33.313Z,55.33
2023-01-26T06:43:01.273Z,54.25
2023-01-26T06:45:29.271Z,57.80
2023-01-26T06:47:57.207Z,58.22
2023-01-26T06:50:31.353Z,58.05
2023-01-26T06:53:03.886Z,53.72
2023-01-26T06:55:37.083Z,61.97
2023-01-26T06:58:05.290Z,54.92
2023-01-26T07:00:33.377Z,59.85
2023-01-26T07:03:01.384Z,57.47
2023-01-26T07:05:29.357Z,57.75
2023-01-26T07:07:57.317Z,56.30
2023-01-26T07:10:26.662Z,51.80
2023-01-26T07:12:54.607Z,56.95
2023-01-26T07:15:22.668Z,56.55
2023-01-26T07:17:50.599Z,50.50
2023-01-26T07:20:18.731Z,55.45
2023-01-26T07:22:46.745Z,54.78
2023-01-26T07:25:14.774Z,47.10
2023-01-26T07:27:44.149Z,54.17
2023-01-26T07:30:14.624Z,51.88
2023-01-26T07:32:42.639Z,45.42
2023-01-26T07:35:10.821Z,45.97
2023-01-26T07:37:38.856Z,38.03
2023-01-26T07:40:08.148Z,46.00
2023-01-26T07:42:36.104Z,45.88
2023-01-26T07:45:06.381Z,47.17
2023-01-26T07:47:35.929Z,49.30
2023-01-26T07:50:04.299Z,37.85
2023-01-26T07:52:32.296Z,36.13
2023-01-26T07:55:00.251Z,37.05
2023-01-26T07:57:28.284Z,34.90
2023-01-26T07:59:56.295Z,36.43
2023-01-26T08:02:25.679Z,31.67
2023-01-26T08:04:53.654Z,31.23
2023-01-26T08:07:21.570Z,28.23
2023-01-26T08:09:49.506Z,28.95
2023-01-26T08:12:17.534Z,24.85
2023-01-26T08:14:47.402Z,28.83
2023-01-26T08:17:17.402Z,29.30
2023-01-26T08:19:47.379Z,26.02
2023-01-26T08:22:15.459Z,25.90
2023-01-26T08:24:43.410Z,28.38
2023-01-26T08:27:11.351Z,27.60
2023-01-26T08:29:39.355Z,30.88
2023-01-26T08:32:08.234Z,24.55
2023-01-26T08:34:36.300Z,27.73
2023-01-26T08:37:05.854Z,18.02
2023-01-26T08:39:33.763Z,18.85
2023-01-26T08:42:01.769Z,22.70
2023-01-26T08:44:29.734Z,18.58
2023-01-26T08:46:57.644Z,19.45
2023-01-26T08:49:25.677Z,27.13
2023-01-26T08:51:53.624Z,22.52
2023-01-26T08:54:23.394Z,24.98
2023-01-26T08:56:51.351Z,26.98
2023-01-26T08:59:19.432Z,12.85
2023-01-26T09:01:51.159Z,23.52
2023-01-26T09:04:19.284Z,26.13
2023-01-26T09:06:47.220Z,23.67
2023-01-26T09:09:15.369Z,27.17
2023-01-26T09:11:44.879Z,22.50
2023-01-26T09:14:12.895Z,26.92
2023-01-26T09:16:40.976Z,22.73
2023-01-26T09:19:08.945Z,24.85
2023-01-26T09:21:36.915Z,23.88
2023-01-26T09:24:05.456Z,24.05
2023-01-26T09:26:33.619Z,23.10
2023-01-26T09:29:03.670Z,23.27
2023-01-26T09:31:31.755Z,30.10
2023-01-26T09:33:59.796Z,27.10
2023-01-26T09:36:27.857Z,28.27
2023-01-26T09:38:55.808Z,25.10
2023-01-26T09:41:39.501Z,20.80
2023-01-26T09:44:11.807Z,17.08
2023-01-26T09:46:51.043Z,24.13
2023-01-26T09:49:22.955Z,22.27
2023-01-26T09:51:58.141Z,23.83
2023-01-26T09:54:35.038Z,20.63
2023-01-26T09:57:04.733Z,23.00
2023-01-26T09:59:39.253Z,23.10
2023-01-26T10:02:21.865Z,24.00
2023-01-26T10:04:54.239Z,23.00
2023-01-26T10:07:22.265Z,27.02
2023-01-26T10:09:51.731Z,20.95
2023-01-26T10:12:23.962Z,24.30
2023-01-26T10:14:59.313Z,27.00
2023-01-26T10:17:31.899Z,16.15
2023-01-26T10:20:05.035Z,20.45
2023-01-26T10:22:41.402Z,23.30
2023-01-26T10:25:16.883Z,25.33
2023-01-26T10:27:46.155Z,17.63
2023-01-26T10:30:16.720Z,17.40
2023-01-26T10:32:47.233Z,24.40
2023-01-26T10:35:19.373Z,21.97
2023-01-26T10:37:47.673Z,24.60
2023-01-26T10:40:17.342Z,22.25
2023-01-26T10:42:55.947Z,16.03
2023-01-26T10:45:30.517Z,24.35
2023-01-26T10:48:18.781Z,20.60
2023-01-26T10:50:47.981Z,23.33
2023-01-26T10:53:19.078Z,20.02
2023-01-26T10:56:00.823Z,19.10
2023-01-26T10:58:45.779Z,15.65
2023-01-26T11:01:16.554Z,17.08
2023-01-26T11:03:57.980Z,22.10
2023-01-26T11:06:29.704Z,20.15
2023-01-26T11:09:11.309Z,19.30
2023-01-26T11:11:39.648Z,18.85
2023-01-26T11:14:16.085Z,23.48
2023-01-26T11:16:48.765Z,17.25
2023-01-26T11:19:33.826Z,16.05
2023-01-26T11:22:06.952Z,12.77
2023-01-26T11:24:42.456Z,17.33
2023-01-26T11:27:33.751Z,23.98
2023-01-26T11:30:31.349Z,28.33
2023-01-26T11:33:06.574Z,21.48
2023-01-26T11:35:46.883Z,19.70
2023-01-26T11:38:28.984Z,17.42
2023-01-26T11:41:06.849Z,20.15
2023-01-26T11:43:56.852Z,23.45
2023-01-26T11:46:38.453Z,21.95
2023-01-26T11:49:21.667Z,20.65
2023-01-26T11:52:02.757Z,24.45
2023-01-26T11:54:50.730Z,12.45
2023-01-26T11:57:28.656Z,13.50
2023-01-26T12:00:02.073Z,16.75
2023-01-26T12:02:34.256Z,17.50
2023-01-26T12:05:12.904Z,14.70
2023-01-26T12:07:54.747Z,17.05
2023-01-26T12:10:28.774Z,15.20
2023-01-26T12:13:04.827Z,17.67
2023-01-26T12:15:37.252Z,20.55
2023-01-26T12:18:15.448Z,17.08
2023-01-26T12:20:47.307Z,20.37
2023-01-26T12:23:25.968Z,15.48
2023-01-26T12:25:59.665Z,22.42
2023-01-26T12:28:32.509Z,17.95
2023-01-26T12:31:05.639Z,16.63
2023-01-26T12:33:34.824Z,16.08
2023-01-26T12:36:26.424Z,22.70
2023-01-26T12:39:14.694Z,27.52
2023-01-26T12:42:03.222Z,19.08
2023-01-26T12:44:38.409Z,23.77
2023-01-26T12:47:13.503Z,15.88
2023-01-26T12:49:47.325Z,13.77
2023-01-26T12:52:22.762Z,21.08
2023-01-26T12:54:58.335Z,18.92
2023-01-26T12:57:32.105Z,16.42
2023-01-26T13:00:10.126Z,14.53
2023-01-26T13:02:39.062Z,17.73
2023-01-26T13:05:07.939Z,15.05
2023-01-26T13:07:39.148Z,12.77
2023-01-26T13:10:26.848Z,18.50
2023-01-26T13:12:58.036Z,20.08
2023-01-26T13:15:28.255Z,14.85
2023-01-26T13:18:01.019Z,13.70
2023-01-26T13:20:45.123Z,17.83
2023-01-26T13:23:39.710Z,12.50
2023-01-26T13:26:42.530Z,14.05
2023-01-26T13:29:36.166Z,13.68
2023-01-26T13:32:37.528Z,15.15
2023-01-26T13:35:13.909Z,14.27
2023-01-26T13:37:47.755Z,21.73
2023-01-26T13:40:20.834Z,17.30
2023-01-26T13:42:56.369Z,14.97
2023-01-26T13:45:31.955Z,12.20
2023-01-26T13:48:01.265Z,12.30
2023-01-26T13:50:33.593Z,9.75
2023-01-26T13:53:02.128Z,16.60
2023-01-26T13:55:33.058Z,16.38
2023-01-26T13:58:14.348Z,13.55
2023-01-26T14:00:42.593Z,18.15
2023-01-26T14:03:22.728Z,10.98
2023-01-26T14:05:56.680Z,14.73
2023-01-26T14:08:25.208Z,16.53
2023-01-26T14:10:54.837Z,11.95
2023-01-26T14:13:27.305Z,13.57
2023-01-26T14:16:00.737Z,14.93
2023-01-26T14:18:29.131Z,11.40
2023-01-26T14:21:04.033Z,14.90
2023-01-26T14:23:35.888Z,17.17
2023-01-26T14:26:07.549Z,11.50
2023-01-26T14:28:37.474Z,11.18
2023-01-26T14:31:15.024Z,13.80
2023-01-26T14:33:43.250Z,11.85
2023-01-26T14:36:16.465Z,12.38
2023-01-26T14:38:46.425Z,14.73
2023-01-26T14:41:19.555Z,9.80
2023-01-26T14:43:49.456Z,6.35
2023-01-26T14:46:19.565Z,14.40
2023-01-26T14:48:53.837Z,10.25
2023-01-26T14:51:24.162Z,12.20
2023-01-26T14:53:53.601Z,13.77
2023-01-26T14:56:28.104Z,13.48
2023-01-26T14:58:56.482Z,7.97
2023-01-26T15:01:26.700Z,10.45
2023-01-26T15:04:00.816Z,10.70
2023-01-26T15:06:30.453Z,10.63
2023-01-26T15:09:02.388Z,11.88
2023-01-26T15:11:57.570Z,9.88
2023-01-26T15:14:37.775Z,9.55
2023-01-26T15:17:06.909Z,10.60
2023-01-26T15:19:43.771Z,8.30
2023-01-26T15:22:21.930Z,11.23
2023-01-26T15:25:04.239Z,13.07
2023-01-26T15:27:35.201Z,9.43
2023-01-26T15:30:04.477Z,11.20
2023-01-26T15:32:38.584Z,10.48
2023-01-26T15:35:20.535Z,10.68
2023-01-26T15:37:49.367Z,14.05
2023-01-26T15:40:17.622Z,11.10
2023-01-26T15:42:46.906Z,7.72
2023-01-26T15:45:24.584Z,8.48
2023-01-26T15:47:52.572Z,7.07
2023-01-26T15:50:27.822Z,8.40
2023-01-26T15:52:56.329Z,8.95
2023-01-26T15:55:29.133Z,7.82
2023-01-26T15:57:58.675Z,9.75
2023-01-26T16:00:26.707Z,6.63
2023-01-26T16:02:54.665Z,9.03
2023-01-26T16:05:24.457Z,10.10
2023-01-26T16:07:52.673Z,8.95
2023-01-26T16:10:20.871Z,12.85
2023-01-26T16:12:50.665Z,12.18
2023-01-26T16:15:38.766Z,3.53
2023-01-26T16:18:07.253Z,5.75
2023-01-26T16:20:36.967Z,9.50
2023-01-26T16:23:07.147Z,13.05
2023-01-26T16:25:35.109Z,9.23
2023-01-26T16:28:03.193Z,9.18
2023-01-26T16:30:32.497Z,11.05
2023-01-26T16:33:00.406Z,11.80
2023-01-26T16:35:29.535Z,10.82
2023-01-26T16:37:57.566Z,11.20
2023-01-26T16:40:25.517Z,9.37
2023-01-26T16:42:55.152Z,7.13
2023-01-26T16:45:24.667Z,10.27
2023-01-26T16:47:55.760Z,11.18
2023-01-26T16:50:24.543Z,18.50
2023-01-26T16:52:53.031Z,10.43
2023-01-26T16:55:21.023Z,13.45
2023-01-26T16:57:49.781Z,9.98
2023-01-26T17:00:20.525Z,10.48
2023-01-26T17:02:51.683Z,16.57
2023-01-26T17:05:23.045Z,11.93
2023-01-26T17:07:51.797Z,11.13
2023-01-26T17:10:22.447Z,12.77
2023-01-26T17:12:50.470Z,16.08
2023-01-26T17:15:18.509Z,12.18
2023-01-26T17:17:49.385Z,15.38
2023-01-26T17:20:19.533Z,18.20
2023-01-26T17:22:50.199Z,14.32
2023-01-26T17:25:19.092Z,10.95
2023-01-26T17:27:49.832Z,11.03
2023-01-26T17:30:18.775Z,15.30
2023-01-26T17:32:46.752Z,13.85
2023-01-26T17:35:14.825Z,19.52
2023-01-26T17:37:42.777Z,14.43
2023-01-26T17:40:13.118Z,15.50
2023-01-26T17:42:41.158Z,18.57
2023-01-26T17:45:10.624Z,13.80
2023-01-26T17:47:39.279Z,14.65
2023-01-26T17:50:08.088Z,15.40
2023-01-26T17:52:36.507Z,15.17
2023-01-26T17:55:06.286Z,16.60
2023-01-26T17:57:35.750Z,14.32
2023-01-26T18:00:04.464Z,13.23
2023-01-26T18:02:33.159Z,10.48
2023-01-26T18:05:01.147Z,15.30
2023-01-26T18:07:29.158Z,7.55
2023-01-26T18:09:57.117Z,15.85
2023-01-26T18:12:25.096Z,10.95
2023-01-26T18:14:55.179Z,8.23
2023-01-26T18:17:23.368Z,14.02
2023-01-26T18:19:51.284Z,14.93
2023-01-26T18:22:19.792Z,16.25
2023-01-26T18:24:49.211Z,12.73
2023-01-26T18:27:17.119Z,19.38
2023-01-26T18:29:45.094Z,18.38
2023-01-26T18:32:14.607Z,17.08
2023-01-26T18:34:43.539Z,12.23
2023-01-26T18:37:12.597Z,10.35
2023-01-26T18:39:40.626Z,14.77
2023-01-26T18:42:08.610Z,13.07
2023-01-26T18:44:36.627Z,16.33
2023-01-26T18:47:05.367Z,15.53
2023-01-26T18:49:34.719Z,9.90
2023-01-26T18:52:02.791Z,7.68
2023-01-26T18:54:30.912Z,18.48
2023-01-26T18:56:58.843Z,15.10
2023-01-26T18:59:27.187Z,13.88
2023-01-26T19:01:55.466Z,13.50
2023-01-26T19:04:23.498Z,13.10
2023-01-26T19:06:52.765Z,11.55
2023-01-26T19:09:21.278Z,7.88
2023-01-26T19:11:49.245Z,16.57
2023-01-26T19:14:17.147Z,12.07
2023-01-26T19:16:47.716Z,11.38
2023-01-26T19:19:15.758Z,15.73
2023-01-26T19:21:43.762Z,19.58
2023-01-26T19:24:13.135Z,15.27
2023-01-26T19:26:41.081Z,11.83
2023-01-26T19:29:10.255Z,19.10
2023-01-26T19:31:38.373Z,19.17
2023-01-26T19:34:08.116Z,18.02
2023-01-26T19:36:37.729Z,12.43
2023-01-26T19:39:07.211Z,16.70
2023-01-26T19:41:38.801Z,13.63
2023-01-26T19:44:07.056Z,16.20
2023-01-26T19:46:35.227Z,15.10
2023-01-26T19:49:03.287Z,13.55
2023-01-26T19:51:31.328Z,14.00
2023-01-26T19:54:00.552Z,17.33
2023-01-26T19:56:30.303Z,10.95
2023-01-26T19:59:01.735Z,15.98
2023-01-26T20:01:31.026Z,15.02
2023-01-26T20:04:01.278Z,14.45
2023-01-26T20:06:31.020Z,18.60
2023-01-26T20:08:59.703Z,16.27
2023-01-26T20:11:29.503Z,16.65
2023-01-26T20:13:59.606Z,16.55
2023-01-26T20:16:29.011Z,13.27
2023-01-26T20:18:57.812Z,14.15
2023-01-26T20:21:25.847Z,17.23
2023-01-26T20:23:55.875Z,15.55
2023-01-26T20:26:25.482Z,10.30
2023-01-26T20:28:57.594Z,14.95
2023-01-26T20:31:27.951Z,15.18
2023-01-26T20:33:56.858Z,16.95
2023-01-26T20:36:27.088Z,19.30
2023-01-26T20:38:55.260Z,18.65
2023-01-26T20:41:25.853Z,17.17
2023-01-26T20:44:01.220Z,15.35
2023-01-26T20:46:32.693Z,15.43
2023-01-26T20:49:00.873Z,17.80
2023-01-26T20:51:30.975Z,21.65
2023-01-26T20:53:59.151Z,11.43
2023-01-26T20:56:27.537Z,18.23
2023-01-26T20:58:56.594Z,12.35
2023-01-26T21:01:25.245Z,15.77
2023-01-26T21:03:54.832Z,11.75
2023-01-26T21:06:24.672Z,18.00
2023-01-26T21:08:54.578Z,16.67
2023-01-26T21:11:24.786Z,21.35
2023-01-26T21:13:53.153Z,11.63
2023-01-26T21:16:21.288Z,18.00
2023-01-26T21:18:51.195Z,14.23
2023-01-26T21:21:22.590Z,18.13
2023-01-26T21:23:50.911Z,21.05
2023-01-26T21:26:22.139Z,17.35
2023-01-26T21:28:51.999Z,19.30
2023-01-26T21:31:20.402Z,19.93
2023-01-26T21:33:49.891Z,19.13
2023-01-26T21:36:21.108Z,24.33
2023-01-26T21:38:52.100Z,16.73
2023-01-26T21:41:39.571Z,19.30
2023-01-26T21:44:09.734Z,17.90
2023-01-26T21:46:37.907Z,22.85
2023-01-26T21:49:06.873Z,20.70
2023-01-26T21:51:54.581Z,17.23
2023-01-26T21:54:22.530Z,20.38
2023-01-26T21:56:50.614Z,17.45
2023-01-26T21:59:19.168Z,23.15
2023-01-26T22:01:48.875Z,20.73
2023-01-26T22:04:18.251Z,16.02
2023-01-26T22:06:47.629Z,21.50
2023-01-26T22:09:17.164Z,22.97
2023-01-26T22:11:45.445Z,17.92
2023-01-26T22:14:16.143Z,17.27
2023-01-26T22:16:44.457Z,18.83
2023-01-26T22:19:13.157Z,17.27
2023-01-26T22:21:41.502Z,22.25
2023-01-26T22:24:12.174Z,17.83
2023-01-26T22:26:40.411Z,13.98
2023-01-26T22:29:08.905Z,23.23
2023-01-26T22:31:36.873Z,19.63
2023-01-26T22:34:05.131Z,29.10
2023-01-26T22:36:33.432Z,20.58
2023-01-26T22:39:01.652Z,16.90
2023-01-26T22:41:31.198Z,24.63
2023-01-26T22:44:01.203Z,20.87
2023-01-26T22:46:30.990Z,21.00
2023-01-26T22:49:00.003Z,22.50
2023-01-26T22:51:29.849Z,23.40
2023-01-26T22:53:59.084Z,20.58
2023-01-26T22:56:27.626Z,20.97
2023-01-26T22:59:00.133Z,18.05
2023-01-26T23:01:29.923Z,20.92
2023-01-26T23:03:58.625Z,17.10
2023-01-26T23:06:26.742Z,18.10
2023-01-26T23:08:55.302Z,14.65
2023-01-26T23:11:25.354Z,17.33
2023-01-26T23:13:54.772Z,16.77
2023-01-26T23:16:25.181Z,23.00
2023-01-26T23:18:53.698Z,20.88
2023-01-26T23:21:21.886Z,24.27
2023-01-26T23:23:49.989Z,21.13
2023-01-26T23:26:18.051Z,16.40
2023-01-26T23:28:46.495Z,24.08
2023-01-26T23:31:16.316Z,14.57
2023-01-26T23:33:45.754Z,21.67
2023-01-26T23:36:15.038Z,23.75
2023-01-26T23:38:44.279Z,16.95
2023-01-26T23:41:12.565Z,23.30
2023-01-26T23:43:40.865Z,15.70
2023-01-26T23:46:10.010Z,17.77
2023-01-26T23:48:38.561Z,13.60
2023-01-26T23:51:10.273Z,22.75
2023-01-26T23:53:38.883Z,13.32
2023-01-26T23:56:09.203Z,23.27
2023-01-26T23:58:37.991Z,16.98
